createdAt,value
2019-05-07T00:02:22.581Z,97245.48
2019-05-07T00:04:53.195Z,97241.56
2019-05-07T00:07:23.689Z,97244.72
2019-05-07T00:09:54.061Z,97248.86
2019-05-07T00:12:24.540Z,97248.39
2019-05-07T00:15:01.291Z,97241.67
2019-05-07T00:17:27.340Z,97246.17
2019-05-07T00:19:57.792Z,97245.42
2019-05-07T00:22:29.016Z,97248.97
2019-05-07T00:24:59.416Z,97253.47
2019-05-07T00:27:31.917Z,97251.66
2019-05-07T00:30:02.931Z,97259.90
2019-05-07T00:32:35.115Z,97254.24
2019-05-07T00:35:07.329Z,97253.19
2019-05-07T00:37:48.806Z,97256.34
2019-05-07T00:40:38.066Z,97250.61
2019-05-07T00:43:22.708Z,97255.59
2019-05-07T00:45:56.925Z,97257.80
2019-05-07T00:48:27.559Z,97258.27
2019-05-07T00:51:16.833Z,97261.83
2019-05-07T00:53:47.163Z,97259.25
2019-05-07T00:56:17.436Z,97259.73
2019-05-07T00:58:48.864Z,97265.57
2019-05-07T01:01:19.348Z,97263.75
2019-05-07T01:03:49.734Z,97273.55
2019-05-07T01:06:22.301Z,97261.55
2019-05-07T01:08:52.625Z,97271.92
2019-05-07T01:11:23.257Z,97271.45
2019-05-07T01:13:53.720Z,97270.11
2019-05-07T01:16:24.260Z,97278.23
2019-05-07T01:18:54.640Z,97272.98
2019-05-07T01:21:25.096Z,97279.33
2019-05-07T01:23:55.506Z,97272.11
2019-05-07T01:26:26.075Z,97284.59
2019-05-07T01:28:59.642Z,97283.24
2019-05-07T01:31:36.991Z,97283.61
2019-05-07T01:34:25.157Z,97285.06
2019-05-07T01:36:55.617Z,97289.20
2019-05-07T01:39:26.000Z,97277.58
2019-05-07T01:41:57.079Z,97286.03
2019-05-07T01:44:27.362Z,97281.14
2019-05-07T01:46:57.837Z,97285.64
2019-05-07T01:49:28.104Z,97291.48
2019-05-07T01:51:58.433Z,97292.75
2019-05-07T01:54:28.812Z,97292.24
2019-05-07T01:56:59.177Z,97298.48
2019-05-07T01:59:29.557Z,97293.33
2019-05-07T02:02:03.454Z,97291.41
2019-05-07T02:04:42.729Z,97293.59
2019-05-07T02:07:25.322Z,97297.14
2019-05-07T02:10:02.918Z,97296.27
2019-05-07T02:12:34.864Z,97298.13
2019-05-07T02:15:06.097Z,97303.09
2019-05-07T02:17:38.420Z,97301.86
2019-05-07T02:20:08.720Z,97296.02
2019-05-07T02:22:39.103Z,97301.39
2019-05-07T02:25:09.589Z,97301.39
2019-05-07T02:27:41.992Z,97300.41
2019-05-07T02:30:14.835Z,97299.53
2019-05-07T02:32:44.144Z,97299.17
2019-05-07T02:35:14.604Z,97303.96
2019-05-07T02:38:03.888Z,97304.14
2019-05-07T02:40:43.125Z,97303.20
2019-05-07T02:43:13.979Z,97312.59
2019-05-07T02:46:17.319Z,97307.70
2019-05-07T02:48:35.836Z,97306.36
2019-05-07T02:51:13.193Z,97309.91
2019-05-07T02:53:54.297Z,97310.67
2019-05-07T02:56:24.773Z,97308.75
2019-05-07T02:58:55.058Z,97299.46
2019-05-07T03:01:25.509Z,97299.83
2019-05-07T03:03:56.062Z,97298.48
2019-05-07T03:06:26.437Z,97304.61
2019-05-07T03:08:56.721Z,97301.93
2019-05-07T03:11:26.971Z,97300.00
2019-05-07T03:13:57.394Z,97298.66
2019-05-07T03:16:41.506Z,97285.70
2019-05-07T03:18:59.831Z,97295.66
2019-05-07T03:21:49.056Z,97293.63
2019-05-07T03:24:53.162Z,97292.28
2019-05-07T03:27:25.973Z,97292.09
2019-05-07T03:30:17.123Z,97295.15
2019-05-07T03:32:56.475Z,97296.02
2019-05-07T03:35:38.117Z,97288.44
2019-05-07T03:38:08.726Z,97293.80
2019-05-07T03:40:39.018Z,97289.78
2019-05-07T03:43:13.467Z,97290.17
2019-05-07T03:45:54.035Z,97291.12
2019-05-07T03:48:24.741Z,97289.70
2019-05-07T03:50:55.327Z,97296.78
2019-05-07T03:53:25.593Z,97293.33
2019-05-07T03:55:56.790Z,97293.23
2019-05-07T03:58:27.113Z,97292.39
2019-05-07T04:00:57.407Z,97301.20
2019-05-07T04:03:27.769Z,97290.54
2019-05-07T04:05:58.192Z,97297.25
2019-05-07T04:08:28.566Z,97300.80
2019-05-07T04:11:03.628Z,97306.17
2019-05-07T04:13:33.724Z,97301.78
2019-05-07T04:16:04.622Z,97311.55
2019-05-07T04:18:35.265Z,97302.15
2019-05-07T04:21:05.746Z,97303.02
2019-05-07T04:23:36.708Z,97314.12
2019-05-07T04:26:22.906Z,97316.81
2019-05-07T04:29:06.650Z,97316.34
2019-05-07T04:31:43.523Z,97311.84
2019-05-07T04:34:23.833Z,97314.05
2019-05-07T04:36:53.492Z,97305.89
2019-05-07T04:39:23.835Z,97307.70
2019-05-07T04:41:54.279Z,97317.97
2019-05-07T04:44:24.643Z,97317.97
2019-05-07T04:46:55.328Z,97305.30
2019-05-07T04:49:25.636Z,97326.67
2019-05-07T04:52:04.310Z,97320.62
2019-05-07T04:54:34.727Z,97315.25
2019-05-07T04:57:08.779Z,97321.89
2019-05-07T04:59:39.244Z,97314.66
2019-05-07T05:02:15.766Z,97324.46
2019-05-07T05:04:46.288Z,97314.09
2019-05-07T05:07:16.757Z,97318.87
2019-05-07T05:09:47.212Z,97326.45
2019-05-07T05:12:17.741Z,97322.83
2019-05-07T05:14:48.581Z,97330.89
2019-05-07T05:17:18.861Z,97323.66
2019-05-07T05:19:49.320Z,97329.33
2019-05-07T05:22:44.383Z,97324.93
2019-05-07T05:25:18.730Z,97328.78
2019-05-07T05:27:49.269Z,97328.67
2019-05-07T05:30:25.992Z,97328.02
2019-05-07T05:32:57.321Z,97327.91
2019-05-07T05:35:27.948Z,97335.17
2019-05-07T05:37:58.816Z,97326.53
2019-05-07T05:40:29.397Z,97331.32
2019-05-07T05:43:08.624Z,97328.19
2019-05-07T05:45:42.614Z,97335.78
2019-05-07T05:48:13.598Z,97336.06
2019-05-07T05:50:59.264Z,97339.01
2019-05-07T05:53:34.626Z,97337.66
2019-05-07T05:56:11.464Z,97338.94
2019-05-07T05:58:52.717Z,97333.05
2019-05-07T06:01:44.632Z,97336.50
2019-05-07T06:04:32.718Z,97333.34
2019-05-07T06:07:12.259Z,97333.23
2019-05-07T06:10:19.047Z,97334.97
2019-05-07T06:12:57.476Z,97332.65
2019-05-07T06:15:52.198Z,97327.09
2019-05-07T06:18:41.902Z,97332.35
2019-05-07T06:21:36.812Z,97332.75
2019-05-07T06:24:08.895Z,97329.08
2019-05-07T06:26:39.105Z,97334.27
2019-05-07T06:29:09.297Z,97334.73
2019-05-07T06:31:39.529Z,97336.09
2019-05-07T06:34:09.777Z,97332.53
2019-05-07T06:36:42.401Z,97339.64
2019-05-07T06:39:18.732Z,97331.95
2019-05-07T06:42:06.483Z,97329.26
2019-05-07T06:44:36.661Z,97327.55
2019-05-07T06:47:06.848Z,97315.34
2019-05-07T06:49:37.140Z,97318.03
2019-05-07T06:52:07.610Z,97321.59
2019-05-07T06:54:37.840Z,97319.85
2019-05-07T06:57:08.057Z,97318.98
2019-05-07T06:59:46.214Z,97318.91
2019-05-07T07:02:42.548Z,97313.53
2019-05-07T07:05:30.228Z,97314.00
2019-05-07T07:08:05.377Z,97313.53
2019-05-07T07:10:53.549Z,97308.63
2019-05-07T07:13:24.747Z,97315.34
2019-05-07T07:15:54.998Z,97322.94
2019-05-07T07:18:26.231Z,97318.98
2019-05-07T07:20:56.681Z,97318.03
2019-05-07T07:23:26.974Z,97319.74
2019-05-07T07:25:57.193Z,97308.63
2019-05-07T07:28:29.757Z,97314.48
2019-05-07T07:31:06.669Z,97310.92
2019-05-07T07:33:43.562Z,97307.29
2019-05-07T07:36:13.575Z,97311.43
2019-05-07T07:38:44.700Z,97308.74
2019-05-07T07:41:36.796Z,97320.33
2019-05-07T07:44:06.971Z,97316.41
2019-05-07T07:46:37.464Z,97319.56
2019-05-07T07:49:11.391Z,97317.86
2019-05-07T07:51:44.514Z,97319.20
2019-05-07T07:54:13.091Z,97316.99
2019-05-07T07:57:02.134Z,97309.41
2019-05-07T07:59:44.856Z,97310.75
2019-05-07T08:02:23.094Z,97319.31
2019-05-07T08:04:53.434Z,97322.95
2019-05-07T08:07:23.613Z,97321.24
2019-05-07T08:09:54.838Z,97328.32
2019-05-07T08:12:25.080Z,97324.29
2019-05-07T08:15:13.026Z,97321.24
2019-05-07T08:17:27.315Z,97320.38
2019-05-07T08:19:57.820Z,97324.41
2019-05-07T08:22:28.012Z,97327.95
2019-05-07T08:24:58.230Z,97326.22
2019-05-07T08:27:28.407Z,97320.84
2019-05-07T08:29:59.024Z,97320.48
2019-05-07T08:32:46.521Z,97318.27
2019-05-07T08:35:26.915Z,97321.31
2019-05-07T08:37:57.194Z,97323.17
2019-05-07T08:40:27.686Z,97328.14
2019-05-07T08:42:58.709Z,97323.64
2019-05-07T08:45:46.744Z,97321.42
2019-05-07T08:48:37.437Z,97322.66
2019-05-07T08:51:07.629Z,97327.20
2019-05-07T08:53:37.893Z,97323.25
2019-05-07T08:56:08.202Z,97321.06
2019-05-07T08:58:38.375Z,97320.95
2019-05-07T09:01:08.604Z,97315.69
2019-05-07T09:03:44.738Z,97310.69
2019-05-07T09:06:17.306Z,97312.02
2019-05-07T09:08:47.486Z,97318.74
2019-05-07T09:11:17.680Z,97312.50
2019-05-07T09:13:47.872Z,97305.78
2019-05-07T09:16:18.118Z,97309.81
2019-05-07T09:18:48.462Z,97315.19
2019-05-07T09:21:18.702Z,97313.84
2019-05-07T09:23:48.933Z,97312.02
2019-05-07T09:26:22.460Z,97313.84
2019-05-07T09:29:05.080Z,97309.34
2019-05-07T09:31:57.946Z,97311.16
2019-05-07T09:34:32.561Z,97307.63
2019-05-07T09:37:03.876Z,97304.44
2019-05-07T09:39:34.120Z,97305.42
2019-05-07T09:42:04.365Z,97304.55
2019-05-07T09:44:35.625Z,97298.30
2019-05-07T09:47:06.042Z,97296.97
2019-05-07T09:49:36.225Z,97292.09
2019-05-07T09:52:06.429Z,97293.91
2019-05-07T09:54:36.721Z,97287.56
2019-05-07T09:57:06.973Z,97284.88
2019-05-07T09:59:37.245Z,97283.53
2019-05-07T10:02:07.509Z,97280.02
2019-05-07T10:04:37.682Z,97275.98
2019-05-07T10:07:10.041Z,97280.48
2019-05-07T10:09:42.688Z,97274.64
2019-05-07T10:12:22.431Z,97275.58
2019-05-07T10:14:52.621Z,97274.71
2019-05-07T10:17:38.279Z,97270.32
2019-05-07T10:20:19.309Z,97273.37
2019-05-07T10:22:42.856Z,97275.58
2019-05-07T10:25:14.239Z,97274.24
2019-05-07T10:27:44.718Z,97258.55
2019-05-07T10:30:14.998Z,97257.34
2019-05-07T10:32:45.310Z,97253.53
2019-05-07T10:35:15.556Z,97251.94
2019-05-07T10:37:45.810Z,97252.63
2019-05-07T10:40:16.182Z,97246.75
2019-05-07T10:42:47.037Z,97239.45
2019-05-07T10:45:26.532Z,97247.10
2019-05-07T10:48:18.388Z,97235.95
2019-05-07T10:50:51.702Z,97233.80
2019-05-07T10:53:23.059Z,97233.03
2019-05-07T10:55:53.293Z,97233.71
2019-05-07T10:58:23.600Z,97232.26
2019-05-07T11:00:54.692Z,97231.19
2019-05-07T11:03:24.964Z,97223.88
2019-05-07T11:05:55.203Z,97217.74
2019-05-07T11:08:25.915Z,97225.39
2019-05-07T11:10:56.168Z,97222.29
2019-05-07T11:13:26.511Z,97212.98
2019-05-07T11:16:03.186Z,97212.39
2019-05-07T11:18:58.401Z,97204.11
2019-05-07T11:21:33.260Z,97208.14
2019-05-07T11:24:03.884Z,97212.85
2019-05-07T11:26:34.212Z,97205.63
2019-05-07T11:29:05.172Z,97209.58
2019-05-07T11:31:35.498Z,97205.04
2019-05-07T11:34:05.728Z,97207.25
2019-05-07T11:36:35.996Z,97205.32
2019-05-07T11:39:07.108Z,97197.15
2019-05-07T11:42:03.897Z,97210.98
2019-05-07T11:44:35.541Z,97205.60
2019-05-07T11:47:26.742Z,97191.41
2019-05-07T11:50:33.824Z,97187.27
2019-05-07T11:53:09.049Z,97188.02
2019-05-07T11:55:39.284Z,97188.78
2019-05-07T11:58:09.811Z,97182.45
2019-05-07T12:00:45.432Z,97186.84
2019-05-07T12:03:15.718Z,97177.84
2019-05-07T12:05:46.021Z,97173.30
2019-05-07T12:08:14.691Z,97165.99
2019-05-07T12:10:43.450Z,97158.44
2019-05-07T12:13:13.715Z,97157.84
2019-05-07T12:15:44.272Z,97161.53
2019-05-07T12:18:14.528Z,97156.55
2019-05-07T12:20:45.323Z,97155.96
2019-05-07T12:23:15.574Z,97165.73
2019-05-07T12:25:45.922Z,97162.37
2019-05-07T12:28:16.391Z,97156.88
2019-05-07T12:31:14.363Z,97159.17
2019-05-07T12:34:03.495Z,97159.68
2019-05-07T12:36:33.748Z,97146.33
2019-05-07T12:39:06.794Z,97146.92
2019-05-07T12:41:38.638Z,97139.72
2019-05-07T12:44:09.068Z,97145.38
2019-05-07T12:46:39.518Z,97136.84
2019-05-07T12:49:11.787Z,97136.84
2019-05-07T12:51:53.486Z,97136.33
2019-05-07T12:54:30.195Z,97130.12
2019-05-07T12:57:02.454Z,97128.77
2019-05-07T12:59:32.386Z,97129.25
2019-05-07T13:02:36.442Z,97122.05
2019-05-07T13:04:52.438Z,97120.80
2019-05-07T13:07:41.805Z,97112.48
2019-05-07T13:10:13.059Z,97119.95
2019-05-07T13:12:43.329Z,97114.58
2019-05-07T13:15:23.905Z,97115.81
2019-05-07T13:17:45.482Z,97111.55
2019-05-07T13:20:17.155Z,97119.61
2019-05-07T13:22:49.748Z,97114.63
2019-05-07T13:25:21.602Z,97113.40
2019-05-07T13:27:53.121Z,97113.00
2019-05-07T13:30:23.864Z,97111.03
2019-05-07T13:32:54.137Z,97114.66
2019-05-07T13:35:25.034Z,97111.23
2019-05-07T13:38:14.675Z,97111.81
2019-05-07T13:41:02.174Z,97109.64
2019-05-07T13:43:37.561Z,97111.06
2019-05-07T13:46:13.421Z,97107.16
2019-05-07T13:48:45.694Z,97103.13
2019-05-07T13:51:15.815Z,97106.80
2019-05-07T13:53:46.004Z,97097.00
2019-05-07T13:56:16.178Z,97092.61
2019-05-07T13:58:46.396Z,97096.13
2019-05-07T14:01:32.910Z,97094.78
2019-05-07T14:04:07.294Z,97088.58
2019-05-07T14:06:38.853Z,97089.17
2019-05-07T14:09:12.251Z,97084.27
2019-05-07T14:11:42.513Z,97085.22
2019-05-07T14:14:13.358Z,97081.70
2019-05-07T14:16:45.100Z,97084.86
2019-05-07T14:19:15.600Z,97081.70
2019-05-07T14:21:46.062Z,97074.70
2019-05-07T14:24:16.327Z,97081.78
2019-05-07T14:26:46.729Z,97074.31
2019-05-07T14:29:17.408Z,97078.86
2019-05-07T14:31:52.295Z,97077.12
2019-05-07T14:34:27.401Z,97080.55
2019-05-07T14:37:04.719Z,97077.88
2019-05-07T14:39:37.113Z,97082.77
2019-05-07T14:42:09.861Z,97092.53
2019-05-07T14:44:50.158Z,97082.66
2019-05-07T14:47:22.265Z,97082.53
2019-05-07T14:49:53.154Z,97076.57
2019-05-07T14:52:32.287Z,97079.25
2019-05-07T14:54:56.175Z,97085.02
2019-05-07T14:57:26.926Z,97082.69
2019-05-07T14:59:58.009Z,97078.78
2019-05-07T15:02:28.444Z,97077.44
2019-05-07T15:04:58.904Z,97078.30
2019-05-07T15:07:29.471Z,97081.35
2019-05-07T15:10:02.204Z,97081.35
2019-05-07T15:12:33.167Z,97082.69
2019-05-07T15:15:04.291Z,97082.10
2019-05-07T15:17:44.279Z,97085.18
2019-05-07T15:20:14.933Z,97087.87
2019-05-07T15:22:54.150Z,97088.81
2019-05-07T15:25:24.544Z,97087.48
2019-05-07T15:27:55.092Z,97087.48
2019-05-07T15:30:27.268Z,97089.69
2019-05-07T15:32:57.881Z,97091.90
2019-05-07T15:35:28.442Z,97081.63
2019-05-07T15:37:59.052Z,97073.20
2019-05-07T15:40:29.484Z,97078.07
2019-05-07T15:43:07.838Z,97072.22
2019-05-07T15:45:42.088Z,97071.35
2019-05-07T15:48:22.046Z,97078.94
2019-05-07T15:51:02.337Z,97078.07
2019-05-07T15:53:52.233Z,97079.06
2019-05-07T15:56:32.395Z,97088.34
2019-05-07T15:59:13.738Z,97086.25
2019-05-07T16:01:55.528Z,97088.06
2019-05-07T16:04:34.805Z,97085.02
2019-05-07T16:07:14.093Z,97081.86
2019-05-07T16:09:54.577Z,97088.58
2019-05-07T16:12:34.793Z,97080.24
2019-05-07T16:15:23.824Z,97079.84
2019-05-07T16:18:08.024Z,97081.70
2019-05-07T16:20:47.737Z,97075.06
2019-05-07T16:23:23.435Z,97077.28
2019-05-07T16:26:02.410Z,97081.70
2019-05-07T16:28:38.894Z,97083.52
2019-05-07T16:31:15.857Z,97080.36
2019-05-07T16:33:55.770Z,97082.06
2019-05-07T16:36:41.900Z,97077.55
2019-05-07T16:39:18.765Z,97076.21
2019-05-07T16:41:56.838Z,97073.52
2019-05-07T16:44:37.807Z,97076.21
2019-05-07T16:47:18.859Z,97081.59
2019-05-07T16:49:58.475Z,97077.91
2019-05-07T16:52:29.803Z,97073.05
2019-05-07T16:55:00.027Z,97072.66
2019-05-07T16:57:51.892Z,97073.52
2019-05-07T17:00:31.874Z,97073.88
2019-05-07T17:03:05.390Z,97072.66
2019-05-07T17:05:35.576Z,97066.80
2019-05-07T17:08:42.212Z,97077.55
2019-05-07T17:11:12.221Z,97075.73
2019-05-07T17:13:42.685Z,97081.11
2019-05-07T17:16:12.919Z,97083.28
2019-05-07T17:18:43.227Z,97079.38
2019-05-07T17:21:13.426Z,97087.83
2019-05-07T17:23:44.775Z,97086.48
2019-05-07T17:26:15.409Z,97087.44
2019-05-07T17:28:45.669Z,97091.46
2019-05-07T17:31:16.001Z,97100.00
2019-05-07T17:33:46.248Z,97102.69
2019-05-07T17:36:16.781Z,97104.90
2019-05-07T17:38:47.079Z,97102.21
2019-05-07T17:41:22.463Z,97112.48
2019-05-07T17:43:52.077Z,97115.17
2019-05-07T17:46:22.244Z,97114.78
2019-05-07T17:48:52.813Z,97123.23
2019-05-07T17:51:42.392Z,97119.20
2019-05-07T17:54:13.464Z,97124.58
2019-05-07T17:56:43.912Z,97130.42
2019-05-07T17:59:14.256Z,97131.29
2019-05-07T18:02:04.976Z,97139.83
2019-05-07T18:04:48.475Z,97135.33
2019-05-07T18:07:12.015Z,97143.38
2019-05-07T18:09:42.247Z,97140.22
2019-05-07T18:12:12.078Z,97148.17
2019-05-07T18:14:42.586Z,97142.80
2019-05-07T18:17:33.592Z,97148.17
2019-05-07T18:20:04.036Z,97145.00
2019-05-07T18:22:34.360Z,97147.69
2019-05-07T18:25:05.019Z,97153.06
2019-05-07T18:27:35.344Z,97153.90
2019-05-07T18:30:06.593Z,97157.94
2019-05-07T18:32:43.735Z,97157.94
2019-05-07T18:35:13.995Z,97162.83
2019-05-07T18:37:53.836Z,97162.83
2019-05-07T18:40:24.099Z,97165.05
2019-05-07T18:42:54.485Z,97170.41
2019-05-07T18:45:25.010Z,97171.28
2019-05-07T18:47:55.307Z,97185.48
2019-05-07T18:50:25.552Z,97179.59
2019-05-07T18:52:55.855Z,97183.63
2019-05-07T18:55:26.751Z,97190.73
2019-05-07T18:57:57.075Z,97197.45
2019-05-07T19:00:31.914Z,97191.21
2019-05-07T19:03:03.381Z,97195.24
2019-05-07T19:05:33.907Z,97200.50
2019-05-07T19:08:08.292Z,97204.53
2019-05-07T19:10:36.849Z,97208.56
2019-05-07T19:13:07.109Z,97206.27
2019-05-07T19:15:38.716Z,97208.48
2019-05-07T19:18:09.013Z,97219.23
2019-05-07T19:20:39.307Z,97217.77
2019-05-07T19:23:09.531Z,97214.61
2019-05-07T19:25:41.930Z,97217.19
2019-05-07T19:28:15.015Z,97214.97
2019-05-07T19:30:46.515Z,97210.47
2019-05-07T19:33:18.160Z,97220.23
2019-05-07T19:35:48.523Z,97213.91
2019-05-07T19:38:19.141Z,97220.98
2019-05-07T19:40:52.652Z,97209.77
2019-05-07T19:43:22.357Z,97216.48
2019-05-07T19:45:52.715Z,97218.30
2019-05-07T19:48:23.273Z,97228.10
2019-05-07T19:50:56.539Z,97233.95
2019-05-07T19:53:26.843Z,97228.58
2019-05-07T19:56:06.213Z,97228.58
2019-05-07T19:58:36.595Z,97227.23
2019-05-07T20:01:12.121Z,97228.97
2019-05-07T20:03:43.577Z,97232.13
2019-05-07T20:06:16.695Z,97237.51
2019-05-07T20:08:47.295Z,97237.79
2019-05-07T20:11:42.506Z,97235.58
2019-05-07T20:14:13.831Z,97235.58
2019-05-07T20:16:46.906Z,97239.22
2019-05-07T20:19:17.139Z,97242.30
2019-05-07T20:21:47.492Z,97242.66
2019-05-07T20:24:17.975Z,97240.84
2019-05-07T20:26:48.259Z,97244.88
2019-05-07T20:29:18.576Z,97251.59
2019-05-07T20:31:48.967Z,97250.64
2019-05-07T20:34:19.236Z,97251.98
2019-05-07T20:36:51.775Z,97259.54
2019-05-07T20:39:23.314Z,97258.59
2019-05-07T20:41:53.653Z,97262.14
2019-05-07T20:44:23.977Z,97259.94
2019-05-07T20:46:54.296Z,97258.11
2019-05-07T20:49:24.969Z,97260.80
2019-05-07T20:51:55.241Z,97259.45
2019-05-07T20:54:32.665Z,97266.17
2019-05-07T20:57:10.188Z,97267.88
2019-05-07T20:59:40.580Z,97270.09
2019-05-07T21:02:11.846Z,97267.77
2019-05-07T21:04:42.595Z,97267.41
2019-05-07T21:07:12.937Z,97270.09
2019-05-07T21:09:45.140Z,97273.15
2019-05-07T21:12:15.603Z,97274.02
2019-05-07T21:14:46.243Z,97274.13
2019-05-07T21:17:16.723Z,97275.83
2019-05-07T21:19:46.919Z,97276.81
2019-05-07T21:22:17.919Z,97283.54
2019-05-07T21:24:49.537Z,97282.55
2019-05-07T21:27:19.861Z,97285.75
2019-05-07T21:29:50.161Z,97288.44
2019-05-07T21:32:22.908Z,97292.47
2019-05-07T21:34:55.422Z,97287.57
2019-05-07T21:37:25.842Z,97291.97
2019-05-07T21:39:56.100Z,97295.16
2019-05-07T21:42:26.326Z,97293.81
2019-05-07T21:44:56.674Z,97294.66
2019-05-07T21:47:26.878Z,97291.97
2019-05-07T21:49:57.067Z,97292.47
2019-05-07T21:52:29.015Z,97298.69
2019-05-07T21:55:17.756Z,97296.00
2019-05-07T21:58:12.926Z,97299.19
2019-05-07T22:01:12.664Z,97300.90
2019-05-07T22:03:47.339Z,97300.03
2019-05-07T22:06:17.650Z,97302.72
2019-05-07T22:08:47.948Z,97298.20
2019-05-07T22:11:18.253Z,97293.70
2019-05-07T22:13:48.566Z,97300.42
2019-05-07T22:16:18.963Z,97298.61
2019-05-07T22:18:49.265Z,97290.14
2019-05-07T22:21:19.574Z,97289.67
2019-05-07T22:23:52.057Z,97294.94
2019-05-07T22:26:25.535Z,97289.20
2019-05-07T22:28:54.163Z,97284.58
2019-05-07T22:31:46.977Z,97289.08
2019-05-07T22:35:02.800Z,97293.00
2019-05-07T22:37:34.334Z,97286.75
2019-05-07T22:40:12.338Z,97282.25
2019-05-07T22:42:44.197Z,97291.66
2019-05-07T22:45:14.499Z,97280.91
2019-05-07T22:47:44.750Z,97283.12
2019-05-07T22:50:16.350Z,97279.95
2019-05-07T22:52:46.623Z,97279.95
2019-05-07T22:55:16.917Z,97280.43
2019-05-07T22:57:56.639Z,97273.70
2019-05-07T23:00:49.925Z,97280.03
2019-05-07T23:03:20.187Z,97276.52
2019-05-07T23:05:52.319Z,97274.66
2019-05-07T23:08:22.574Z,97269.03
2019-05-07T23:10:52.803Z,97270.86
2019-05-07T23:13:23.043Z,97269.51
2019-05-07T23:15:54.647Z,97269.98
2019-05-07T23:18:24.802Z,97267.69
2019-05-07T23:20:55.140Z,97262.03
2019-05-07T23:23:25.347Z,97269.62
2019-05-07T23:25:55.579Z,97268.75
2019-05-07T23:28:25.765Z,97272.39
2019-05-07T23:30:56.213Z,97269.70
2019-05-07T23:33:26.401Z,97271.05
2019-05-07T23:36:22.694Z,97263.97
2019-05-07T23:39:29.024Z,97262.51
2019-05-07T23:42:12.692Z,97256.38
2019-05-07T23:44:43.097Z,97260.05
2019-05-07T23:47:13.379Z,97258.78
2019-05-07T23:49:43.557Z,97256.09
2019-05-07T23:52:13.861Z,97255.73
2019-05-07T23:54:44.103Z,97256.97
2019-05-07T23:57:15.361Z,97259.66
2019-05-07T23:59:45.708Z,97253.80
